Amidon, North Dakota
Current Conditions -  °F | °C
As of 10:56 AM on Wednesday 26 Nov 2014 (Local Time) from KDIK Reporting Station
Overcast Overcast  
Wind Chill: 11°   Ceiling: 1200
Heat Index: 19°   Visibility: 7mi
Dew Point: 13°   Wind: 6mph
Humidity: 77%   Direction: 10°N
Pressure: 30.26"   Gusts: NA
Location:  46.48°N, 103.32°W
Report Text: KDIK 261756Z AUTO 01005KT 7SM BKN012 BKN017 OVC050 M07/M11 A3026 RMK AO2 SNB06E50 SLP290 P0000 60000 T10721106 11067 21078 51013
Loading
Personal Weather Stations






























Interactive Weather Map New forecast layout! Learn more

10-Day Weather Forecast

Advertisements
Track Severe Weather on mobile